Time;durP1;ratioP1;P1;durP2;ratioP2;P2;SDS_P1;SDS_P2;PMS_P1;PMS_P2;Temp;Humidity;BMP_temperature;BMP_pressure;BME280_temperature;BME280_humidity;BME280_pressure;Samples;Min_cycle;Max_cycle;Signal;HPM_P1;HPM_P2
2020/12/14 00:01:27;;;;;;;29.98;8.58;;;;;;;4.07;90.98;98869.81;1710199;82;21214;-88
2020/12/14 00:03:55;;;;;;;22.00;8.05;;;;;;;4.06;90.90;98871.53;1710510;82;21193;-89
2020/12/14 00:06:22;;;;;;;17.85;7.20;;;;;;;4.08;90.93;98876.65;1719463;81;21173;-89
2020/12/14 00:08:49;;;;;;;18.25;8.25;;;;;;;4.05;90.91;98884.39;1716473;82;21598;-86
2020/12/14 00:11:17;;;;;;;17.10;7.28;;;;;;;4.06;90.93;98873.22;1719779;83;21181;-89
2020/12/14 00:13:47;;;;;;;17.00;8.30;;;;;;;4.05;90.96;98880.09;1725729;82;21185;-89
2020/12/14 00:16:14;;;;;;;16.25;8.45;;;;;;;4.05;91.15;98886.53;1716419;78;21296;-85
2020/12/14 00:18:41;;;;;;;19.37;8.38;;;;;;;4.05;90.98;98889.53;1722755;79;21240;-85
2020/12/14 00:21:08;;;;;;;21.65;9.40;;;;;;;4.08;90.77;98894.66;1729655;78;21485;-86
2020/12/14 00:23:36;;;;;;;22.45;10.05;;;;;;;4.08;90.76;98890.39;1705641;79;21526;-86
2020/12/14 00:26:06;;;;;;;19.67;9.30;;;;;;;4.06;90.78;98895.97;1667019;79;21121;-87
2020/12/14 00:28:33;;;;;;;19.20;8.05;;;;;;;4.06;90.27;98897.26;1721618;80;21238;-85
2020/12/14 00:31:01;;;;;;;18.82;7.97;;;;;;;3.99;90.91;98905.39;1719097;80;21195;-88
2020/12/14 00:33:28;;;;;;;19.75;8.45;;;;;;;3.98;90.97;98898.99;1713313;83;21182;-88
2020/12/14 00:35:56;;;;;;;19.65;8.55;;;;;;;3.95;90.74;98906.27;1699012;80;21136;-85
2020/12/14 00:38:23;;;;;;;22.67;9.85;;;;;;;3.95;90.92;98907.98;1679098;85;21183;-85
2020/12/14 00:40:51;;;;;;;21.27;9.00;;;;;;;3.89;91.58;98913.14;1685743;85;21172;-88
2020/12/14 00:43:19;;;;;;;19.27;8.85;;;;;;;3.94;90.91;98914.86;1670254;83;21191;-86
2020/12/14 00:45:46;;;;;;;23.25;10.05;;;;;;;3.93;91.32;98923.85;1713080;79;21920;-88
2020/12/14 00:48:13;;;;;;;29.18;9.28;;;;;;;3.91;91.27;98919.14;1704872;83;21187;-88
2020/12/14 00:50:41;;;;;;;19.25;8.70;;;;;;;3.89;91.43;98926.00;1713178;84;21312;-89
2020/12/14 00:53:08;;;;;;;21.33;8.18;;;;;;;3.91;91.19;98929.42;1709766;84;21152;-88
2020/12/14 00:55:35;;;;;;;16.87;8.03;;;;;;;3.92;91.06;98928.55;1713257;83;21323;-89
2020/12/14 00:58:03;;;;;;;19.02;7.97;;;;;;;3.89;91.41;98928.58;1711816;83;21311;-86
2020/12/14 01:00:30;;;;;;;26.37;8.90;;;;;;;3.93;91.02;98932.86;1711527;83;21197;-89
2020/12/14 01:02:58;;;;;;;21.57;8.45;;;;;;;3.93;91.24;98934.98;1708840;83;21196;-90
2020/12/14 01:05:25;;;;;;;21.82;9.13;;;;;;;3.92;91.27;98941.01;1709137;80;21348;-89
2020/12/14 01:07:53;;;;;;;20.55;9.30;;;;;;;3.93;91.23;98937.56;1705360;83;21712;-86
2020/12/14 01:10:20;;;;;;;22.00;9.73;;;;;;;3.89;91.54;98937.14;1724420;82;21566;-84
2020/12/14 01:12:48;;;;;;;22.32;9.95;;;;;;;3.93;90.93;98940.13;1702120;80;21679;-84
2020/12/14 01:15:17;;;;;;;19.55;8.80;;;;;;;3.95;90.90;98938.85;1706473;80;21336;-88
2020/12/14 01:17:44;;;;;;;22.77;8.98;;;;;;;3.89;91.20;98942.72;1718103;83;21209;-88
2020/12/14 01:20:14;;;;;;;20.15;8.48;;;;;;;3.84;91.44;98940.16;1725642;83;21170;-89
2020/12/14 01:22:43;;;;;;;30.00;8.68;;;;;;;3.83;91.75;98947.87;1719798;80;21307;-88
2020/12/14 01:25:11;;;;;;;23.15;8.23;;;;;;;3.88;91.34;98957.70;1716714;77;21147;-86
2020/12/14 01:27:38;;;;;;;22.17;8.23;;;;;;;3.91;90.75;98955.14;1710150;83;21151;-88
2020/12/14 01:30:05;;;;;;;21.00;7.92;;;;;;;3.85;91.82;98960.30;1716352;83;21116;-90
2020/12/14 01:32:33;;;;;;;20.68;7.80;;;;;;;3.90;91.53;98964.99;1710524;83;21335;-88
2020/12/14 01:35:01;;;;;;;18.20;7.17;;;;;;;3.96;90.99;98965.02;1719413;80;21106;-86
2020/12/14 01:37:28;;;;;;;19.35;7.35;;;;;;;3.96;91.07;98968.88;1721213;80;21123;-84
2020/12/14 01:39:57;;;;;;;21.97;7.58;;;;;;;3.93;91.24;98974.86;1731421;80;21127;-87
2020/12/14 01:42:24;;;;;;;18.10;7.78;;;;;;;3.90;91.17;98977.85;1735354;81;21850;-87
2020/12/14 01:44:53;;;;;;;18.57;7.83;;;;;;;3.95;91.12;98974.86;1736749;82;22110;-89
2020/12/14 01:47:36;;;;;;;18.70;7.72;;;;;;;3.92;91.31;98969.70;1720459;80;21341;-85
2020/12/14 01:50:07;;;;;;;;;;;;;;;3.95;90.98;98967.14;1729375;80;21145;-85
2020/12/14 01:52:35;;;;;;;24.72;7.75;;;;;;;3.87;91.39;98956.01;1683747;79;20195;-89
2020/12/14 01:55:02;;;;;;;18.95;7.30;;;;;;;3.98;90.99;98965.44;1665565;84;21503;-89
2020/12/14 01:57:30;;;;;;;21.97;9.30;;;;;;;3.99;90.78;98971.43;1656602;80;21184;-85
2020/12/14 01:59:57;;;;;;;20.65;8.68;;;;;;;3.94;91.27;98984.73;1648751;86;21205;-89
2020/12/14 02:02:25;;;;;;;16.90;7.90;;;;;;;3.92;91.32;98973.56;1650588;86;21308;-85
2020/12/14 02:04:52;;;;;;;20.55;9.00;;;;;;;3.90;91.54;98977.85;1636513;81;21440;-89
2020/12/14 02:07:20;;;;;;;19.92;8.15;;;;;;;3.89;90.83;98978.73;1628574;88;21207;-86
2020/12/14 02:09:47;;;;;;;21.57;8.75;;;;;;;3.84;91.67;98977.85;1664282;84;21150;-87
2020/12/14 02:12:15;;;;;;;18.35;7.60;;;;;;;3.82;91.79;98970.56;1659445;86;21185;-88
2020/12/14 02:14:42;;;;;;;20.12;8.03;;;;;;;3.78;91.90;98970.59;1660891;86;21637;-88
2020/12/14 02:17:09;;;;;;;22.17;8.68;;;;;;;3.74;91.46;98967.98;1665093;84;21158;-88
2020/12/14 02:19:38;;;;;;;18.00;7.55;;;;;;;3.76;91.97;98977.44;1652724;84;21283;-85
2020/12/14 02:22:05;;;;;;;22.07;8.48;;;;;;;3.74;92.17;98971.44;1667039;84;21257;-85
2020/12/14 02:24:33;;;;;;;24.70;8.15;;;;;;;3.82;91.41;98967.59;1670437;85;21308;-84
2020/12/14 02:27:00;;;;;;;20.55;8.23;;;;;;;3.85;91.04;98970.14;1670327;86;21281;-85
2020/12/14 02:29:28;;;;;;;20.10;8.68;;;;;;;3.84;90.99;98962.42;1666650;85;21278;-85
2020/12/14 02:31:55;;;;;;;20.75;7.62;;;;;;;3.86;91.15;98961.99;1652362;83;21264;-85
2020/12/14 02:34:22;;;;;;;16.77;8.40;;;;;;;3.85;91.63;98965.00;1648124;85;21691;-83
2020/12/14 02:36:50;;;;;;;18.42;8.10;;;;;;;3.90;91.54;98963.70;1670289;84;21150;-84
2020/12/14 02:39:17;;;;;;;24.05;8.20;;;;;;;3.92;91.89;98964.16;1670414;86;21316;-84
2020/12/14 02:41:44;;;;;;;23.62;7.97;;;;;;;3.94;91.84;98965.45;1670337;83;21218;-83
2020/12/14 02:44:11;;;;;;;18.60;7.90;;;;;;;3.97;91.82;98964.99;1662939;83;21265;-85
2020/12/14 02:46:41;;;;;;;19.37;8.23;;;;;;;3.95;92.03;98970.56;1696010;82;21253;-85
2020/12/14 02:49:08;;;;;;;20.48;8.95;;;;;;;4.00;91.61;98968.02;1670197;83;21280;-85
2020/12/14 02:51:35;;;;;;;23.35;9.60;;;;;;;4.02;91.35;98965.02;1670236;84;21107;-86
2020/12/14 02:54:02;;;;;;;18.00;8.55;;;;;;;4.03;91.32;98972.30;1665880;83;21320;-83
2020/12/14 02:56:30;;;;;;;19.77;8.98;;;;;;;3.99;91.75;98976.58;1640466;86;21283;-83
2020/12/14 02:58:57;;;;;;;26.68;10.05;;;;;;;4.07;91.08;98979.14;1637360;85;21275;-84
2020/12/14 03:01:25;;;;;;;19.57;8.40;;;;;;;3.90;91.19;98959.44;1691158;79;21180;-89
2020/12/14 03:03:52;;;;;;;19.65;9.35;;;;;;;4.03;91.51;98981.30;1684863;84;21189;-88
2020/12/14 03:06:19;;;;;;;19.17;8.85;;;;;;;4.05;91.53;98985.57;1688145;84;21221;-84
2020/12/14 03:08:46;;;;;;;17.87;8.60;;;;;;;4.05;91.26;98985.57;1688166;84;21185;-88
2020/12/14 03:11:14;;;;;;;22.30;8.53;;;;;;;4.01;91.41;98986.43;1688849;84;21165;-88
2020/12/14 03:13:41;;;;;;;20.00;7.47;;;;;;;3.98;90.88;98985.16;1693856;83;21162;-84
2020/12/14 03:16:09;;;;;;;21.82;8.30;;;;;;;3.93;90.64;98989.00;1692306;83;21209;-85
2020/12/14 03:18:36;;;;;;;20.17;8.13;;;;;;;3.92;91.10;99000.57;1696387;80;21160;-87
2020/12/14 03:21:08;;;;;;;21.25;8.68;;;;;;;3.89;91.46;99004.01;1688780;85;21185;-86
2020/12/14 03:23:35;;;;;;;19.73;8.48;;;;;;;3.91;91.20;98998.88;1694352;82;21147;-84
2020/12/14 03:26:03;;;;;;;22.60;8.05;;;;;;;3.86;91.58;99004.02;1694532;83;21300;-85
2020/12/14 03:28:31;;;;;;;20.25;8.48;;;;;;;3.92;91.54;98999.28;1694686;81;22098;-89
2020/12/14 03:30:58;;;;;;;19.90;8.88;;;;;;;3.96;91.07;98999.30;1684928;84;21164;-85
2020/12/14 03:33:25;;;;;;;22.45;8.55;;;;;;;3.93;91.08;99001.02;1680895;84;21175;-87
2020/12/14 03:35:53;;;;;;;24.82;8.65;;;;;;;3.87;91.40;99004.44;1733979;81;21291;-85
2020/12/14 03:38:20;;;;;;;19.50;8.83;;;;;;;3.90;91.36;99002.28;1728833;80;21274;-86
2020/12/14 03:40:48;;;;;;;23.40;9.30;;;;;;;3.92;91.44;99001.45;1736309;81;21273;-85
2020/12/14 03:43:15;;;;;;;20.82;8.40;;;;;;;3.97;91.42;99001.44;1731685;81;21297;-84
2020/12/14 03:45:43;;;;;;;21.55;10.38;;;;;;;3.95;91.47;99007.02;1722555;80;21202;-86
2020/12/14 03:48:10;;;;;;;22.67;10.20;;;;;;;3.88;91.78;99007.45;1717054;83;21639;-86
2020/12/14 03:50:42;;;;;;;27.32;10.28;;;;;;;4.00;90.76;99009.17;1717630;82;21147;-88
2020/12/14 03:53:06;;;;;;;24.55;11.40;;;;;;;3.93;91.16;99010.02;1722879;80;21280;-85
2020/12/14 03:55:34;;;;;;;27.32;11.30;;;;;;;3.93;91.00;99018.58;1723044;80;21333;-85
2020/12/14 03:58:02;;;;;;;26.87;12.37;;;;;;;3.87;91.53;99015.16;1721159;80;21368;-88
2020/12/14 04:00:29;;;;;;;26.97;11.45;;;;;;;3.81;91.96;99012.15;1709325;83;21189;-87
2020/12/14 04:02:56;;;;;;;22.65;9.70;;;;;;;3.78;92.27;99020.73;1709794;83;21190;-88
2020/12/14 04:05:24;;;;;;;26.90;11.30;;;;;;;3.83;91.77;99018.59;1695494;80;21295;-88
2020/12/14 04:07:52;;;;;;;27.75;11.18;;;;;;;3.83;91.83;99024.58;1701936;81;21270;-85
2020/12/14 04:10:20;;;;;;;29.67;11.53;;;;;;;3.86;91.88;99032.72;1709283;78;21276;-88
2020/12/14 04:12:47;;;;;;;34.98;12.43;;;;;;;3.88;92.17;99040.01;1726752;82;21152;-89
2020/12/14 04:15:15;;;;;;;31.82;12.68;;;;;;;3.88;91.84;99033.17;1756559;80;21243;-84
2020/12/14 04:17:42;;;;;;;26.73;10.60;;;;;;;3.88;91.90;99043.86;1715547;80;21160;-87
2020/12/14 04:20:10;;;;;;;28.35;10.53;;;;;;;3.92;91.72;99043.01;1734615;81;21157;-88
2020/12/14 04:22:37;;;;;;;20.65;10.65;;;;;;;3.88;91.71;99042.17;1736909;82;21640;-88
2020/12/14 04:25:05;;;;;;;28.67;11.20;;;;;;;3.93;91.88;99039.16;1730325;80;21139;-85
2020/12/14 04:27:32;;;;;;;22.17;9.15;;;;;;;3.95;91.92;99049.45;1699092;79;21095;-89
2020/12/14 04:30:00;;;;;;;30.05;10.40;;;;;;;4.01;91.27;99045.59;1697338;84;21181;-90
2020/12/14 04:32:27;;;;;;;27.58;10.05;;;;;;;3.79;91.33;99016.00;1700391;84;21165;-91
2020/12/14 04:34:54;;;;;;;25.97;10.65;;;;;;;3.99;91.58;99055.03;1699697;84;21180;-91
2020/12/14 04:37:22;;;;;;;25.30;10.10;;;;;;;4.03;91.44;99055.46;1696252;83;21160;-90
2020/12/14 04:39:49;;;;;;;30.88;10.70;;;;;;;4.06;91.29;99063.20;1696470;84;21651;-91
2020/12/14 04:42:17;;;;;;;22.10;10.60;;;;;;;4.09;91.52;99066.19;1693515;84;21701;-91
2020/12/14 04:44:45;;;;;;;25.20;10.30;;;;;;;4.07;91.26;99071.33;1707822;80;21187;-86
2020/12/14 04:47:13;;;;;;;23.42;10.75;;;;;;;4.10;91.29;99073.91;1678583;83;21181;-90
2020/12/14 04:49:41;;;;;;;26.68;10.35;;;;;;;4.12;91.12;99073.48;1747487;80;21309;-91
2020/12/14 04:52:09;;;;;;;22.70;9.70;;;;;;;4.06;91.13;99076.06;1766289;79;21814;-88
2020/12/14 04:54:37;;;;;;;25.05;10.65;;;;;;;4.03;91.09;99091.48;1702747;82;21198;-90
2020/12/14 04:57:08;;;;;;;22.82;9.03;;;;;;;4.02;90.99;99088.48;1740307;82;21265;-86
2020/12/14 04:59:36;;;;;;;23.02;8.75;;;;;;;4.03;90.77;99095.34;1720010;79;21331;-89
2020/12/14 05:02:07;;;;;;;19.60;7.92;;;;;;;4.07;90.36;99092.34;1713356;83;21152;-90
2020/12/14 05:04:39;;;;;;;20.50;8.30;;;;;;;4.06;90.33;99094.47;1692521;80;21166;-88
2020/12/14 05:07:07;;;;;;;18.70;7.40;;;;;;;4.02;90.53;99098.78;1699489;82;21168;-84
2020/12/14 05:09:35;;;;;;;19.90;7.95;;;;;;;3.87;90.57;99069.17;1683898;83;21151;-85
2020/12/14 05:12:18;;;;;;;23.52;7.90;;;;;;;3.96;90.84;99105.20;1702787;83;21310;-84
2020/12/14 05:14:46;;;;;;;;;;;;;;;3.99;90.89;99107.77;1704945;81;21140;-85
2020/12/14 05:17:24;;;;;;;18.30;6.70;;;;;;;4.02;90.80;99103.92;1669685;82;20506;-84
2020/12/14 05:19:53;;;;;;;19.52;8.00;;;;;;;4.02;90.99;99115.50;1688913;82;21121;-85
2020/12/14 05:22:20;;;;;;;15.58;6.80;;;;;;;4.03;90.90;99112.49;1692775;82;21167;-85
2020/12/14 05:24:49;;;;;;;21.77;7.60;;;;;;;4.07;90.81;99117.63;1688003;82;21194;-85
2020/12/14 05:27:34;;;;;;;15.85;6.85;;;;;;;3.91;91.23;99106.90;1703963;81;21135;-89
2020/12/14 05:30:14;;;;;;;17.15;7.90;;;;;;;4.07;90.81;99127.92;1706566;80;21278;-85
2020/12/14 05:32:41;;;;;;;24.85;9.73;;;;;;;4.05;91.09;99128.79;1696478;80;21124;-89
2020/12/14 05:35:12;;;;;;;19.55;9.43;;;;;;;4.07;91.33;99136.08;1698863;83;21622;-90
2020/12/14 05:37:41;;;;;;;18.57;9.55;;;;;;;3.97;91.40;99137.77;1685649;80;21487;-84
2020/12/14 05:40:11;;;;;;;27.62;12.03;;;;;;;4.08;90.50;99152.81;1647783;84;21273;-85
2020/12/14 05:42:42;;;;;;;25.88;10.78;;;;;;;4.04;91.04;99143.78;1693127;83;21285;-84
2020/12/14 05:45:13;;;;;;;23.60;11.43;;;;;;;4.08;90.28;99149.36;1653369;85;21277;-84
2020/12/14 05:47:44;;;;;;;22.40;10.05;;;;;;;4.06;90.75;99154.93;1668427;82;21324;-84
2020/12/14 05:50:12;;;;;;;25.57;9.45;;;;;;;4.05;90.99;99154.08;1672955;82;21632;-85
2020/12/14 05:52:51;;;;;;;22.15;9.00;;;;;;;4.05;90.83;99153.23;1668675;84;21148;-83
2020/12/14 05:55:22;;;;;;;23.30;8.60;;;;;;;4.04;90.64;99161.79;1639225;84;21138;-84
2020/12/14 05:57:51;;;;;;;24.45;10.23;;;;;;;3.99;91.21;99157.93;1650991;84;21119;-83
2020/12/14 06:00:20;;;;;;;24.35;9.68;;;;;;;3.99;91.31;99161.35;1687654;83;21328;-85
2020/12/14 06:02:49;;;;;;;23.87;9.28;;;;;;;4.02;91.25;99164.38;1615834;87;21297;-85
2020/12/14 06:05:20;;;;;;;21.87;9.00;;;;;;;4.06;91.16;99166.11;1631166;83;21277;-84
2020/12/14 06:07:52;;;;;;;22.52;9.70;;;;;;;4.08;91.09;99160.94;1660773;85;21290;-84
2020/12/14 06:10:23;;;;;;;21.15;9.45;;;;;;;4.07;91.21;99168.24;1676697;84;21251;-85
2020/12/14 06:12:54;;;;;;;23.90;9.70;;;;;;;4.12;90.88;99171.27;1685200;83;21311;-85
2020/12/14 06:15:25;;;;;;;26.73;9.75;;;;;;;4.10;91.00;99160.11;1698899;82;21192;-91
2020/12/14 06:17:56;;;;;;;28.30;9.90;;;;;;;4.16;91.35;99172.98;1747817;80;21504;-88
2020/12/14 06:20:24;;;;;;;26.12;9.70;;;;;;;4.22;90.80;99178.58;1728399;81;21200;-88
2020/12/14 06:23:05;;;;;;;27.90;12.05;;;;;;;4.17;91.10;99180.27;1678479;80;22266;-89
2020/12/14 06:25:33;;;;;;;21.30;10.75;;;;;;;4.16;91.01;99186.28;1671415;85;21549;-85
2020/12/14 06:28:28;;;;;;;22.73;11.22;;;;;;;4.15;91.20;99185.41;1693270;84;21273;-84
2020/12/14 06:30:57;;;;;;;26.73;10.95;;;;;;;4.23;90.75;99192.30;1685003;84;21138;-84
2020/12/14 06:33:39;;;;;;;25.37;11.68;;;;;;;4.24;91.26;99196.56;1658224;85;21270;-83
2020/12/14 06:36:27;;;;;;;33.58;11.08;;;;;;;4.19;90.93;99197.41;1690735;84;21270;-84
2020/12/14 06:38:54;;;;;;;27.05;10.43;;;;;;;4.13;91.08;99217.14;1687404;84;21825;-84
2020/12/14 06:44:13;;;;;;;27.62;10.40;;;;;;;4.23;91.12;99217.59;1797494;78;22944;-91
2020/12/14 06:46:41;;;;;;;28.70;9.85;;;;;;;4.25;90.61;99217.16;1796078;78;21571;-91
2020/12/14 06:49:09;;;;;;;19.30;9.08;;;;;;;4.27;90.57;99224.90;1731261;79;21139;-91
2020/12/14 06:51:56;;;;;;;26.10;10.35;;;;;;;4.25;90.65;99225.32;1738160;81;21176;-91
2020/12/14 06:54:46;;;;;;;23.55;9.50;;;;;;;4.25;90.62;99226.17;1714548;83;21126;-89
2020/12/14 06:57:17;;;;;;;28.02;9.60;;;;;;;4.25;91.17;99235.62;1699245;83;21188;-89
2020/12/14 08:03:08;;;;;;;25.48;11.00;;;;;;;4.91;89.95;99277.77;1798857;77;22603;-91
2020/12/14 08:05:35;;;;;;;26.30;11.45;;;;;;;4.92;89.94;99278.22;1780054;79;21147;-92
2020/12/14 08:08:05;;;;;;;26.62;10.38;;;;;;;4.89;89.45;99275.63;1778020;79;21177;-90
2020/12/14 08:10:41;;;;;;;25.57;11.15;;;;;;;4.91;89.37;99282.07;1705936;78;21262;-91
2020/12/14 08:13:11;;;;;;;24.37;10.72;;;;;;;4.92;89.19;99293.67;1680978;84;21355;-92
2020/12/14 08:15:41;;;;;;;30.10;12.68;;;;;;;4.90;89.09;99297.97;1693705;80;21284;-92
2020/12/14 08:18:11;;;;;;;30.68;11.50;;;;;;;4.97;89.39;99290.69;1709512;81;21299;-92
2020/12/14 08:20:42;;;;;;;26.05;11.18;;;;;;;5.04;89.03;99297.13;1657825;79;21194;-91
2020/12/14 08:23:23;;;;;;;25.27;9.55;;;;;;;5.04;88.50;99295.41;1692578;81;21402;-91
2020/12/14 08:25:52;;;;;;;27.75;11.83;;;;;;;5.00;88.51;99303.98;1642605;83;21803;-91
2020/12/14 08:28:34;;;;;;;25.57;10.53;;;;;;;4.96;88.85;99304.84;1736523;82;21129;-91
2020/12/14 08:31:05;;;;;;;23.00;9.70;;;;;;;4.97;88.93;99303.56;1684326;81;21151;-92
2020/12/14 08:33:33;;;;;;;32.55;11.78;;;;;;;4.72;88.75;99260.60;1662167;81;21215;-91
2020/12/14 08:36:10;;;;;;;27.45;10.85;;;;;;;5.07;88.95;99301.83;1619418;86;22597;-91
2020/12/14 08:38:37;;;;;;;21.02;10.35;;;;;;;5.14;88.94;99307.42;1768329;80;21151;-93
2020/12/14 08:41:06;;;;;;;22.90;9.68;;;;;;;5.13;88.46;99310.88;1755597;80;22357;-91
2020/12/14 08:43:36;;;;;;;21.50;8.88;;;;;;;5.13;88.01;99311.28;1755812;80;21664;-90
2020/12/14 08:46:11;;;;;;;22.77;10.00;;;;;;;5.17;88.49;99306.56;1723345;80;21167;-90
2020/12/14 08:48:48;;;;;;;26.35;9.65;;;;;;;5.24;88.38;99314.73;1718225;81;21294;-86
2020/12/14 08:51:22;;;;;;;25.08;10.85;;;;;;;5.31;88.50;99307.84;1699472;81;21197;-91
2020/12/14 08:53:53;;;;;;;21.23;10.15;;;;;;;5.33;88.49;99308.30;1676398;83;21181;-88
2020/12/14 08:56:23;;;;;;;21.90;11.25;;;;;;;5.31;88.08;99309.13;1700116;82;21160;-92
2020/12/14 08:58:58;;;;;;;25.72;11.08;;;;;;;5.34;88.16;99311.73;1745887;80;21733;-91
2020/12/14 09:01:32;;;;;;;24.32;10.90;;;;;;;5.28;88.04;99306.14;1722642;81;21163;-90
2020/12/14 09:04:06;;;;;;;20.45;10.40;;;;;;;5.27;87.77;99304.84;1638167;87;21189;-91
2020/12/14 09:06:36;;;;;;;24.90;11.00;;;;;;;5.22;87.59;99302.72;1662373;80;21145;-91
2020/12/14 09:09:12;;;;;;;27.00;12.13;;;;;;;5.24;87.91;99303.57;1671870;82;21172;-91
2020/12/14 09:11:48;;;;;;;32.95;13.15;;;;;;;5.27;88.04;99304.44;1653240;84;21350;-91
2020/12/14 09:14:31;;;;;;;27.93;10.75;;;;;;;5.29;88.32;99300.14;1685418;82;21186;-89
2020/12/14 09:17:07;;;;;;;23.32;9.25;;;;;;;5.29;87.76;99301.42;1680837;80;21338;-91
2020/12/14 09:19:35;;;;;;;24.40;9.63;;;;;;;5.23;87.56;99303.98;1694746;80;21587;-92
2020/12/14 09:22:03;;;;;;;17.77;8.05;;;;;;;5.29;87.74;99301.42;1688100;84;21192;-91
2020/12/14 09:24:33;;;;;;;24.43;9.15;;;;;;;5.37;87.58;99294.55;1688535;84;21149;-91
2020/12/14 09:27:08;;;;;;;23.40;9.28;;;;;;;5.39;87.88;99298.38;1707801;79;21229;-92
2020/12/14 09:29:39;;;;;;;23.15;9.20;;;;;;;5.46;88.02;99295.39;1726928;80;21237;-88
2020/12/14 09:32:09;;;;;;;24.18;10.85;;;;;;;5.49;87.87;99291.50;1684724;82;21342;-89
2020/12/14 09:34:40;;;;;;;24.57;10.18;;;;;;;5.52;87.34;99297.95;1737885;81;21162;-91
2020/12/14 09:37:09;;;;;;;21.77;10.43;;;;;;;5.52;86.73;99296.23;1765714;79;21250;-87
2020/12/14 09:39:39;;;;;;;21.15;8.95;;;;;;;5.63;87.50;99301.39;1690500;80;21346;-91
2020/12/14 09:42:07;;;;;;;25.27;11.48;;;;;;;5.56;86.72;99300.52;1638091;81;21182;-93
2020/12/14 09:44:35;;;;;;;26.55;11.60;;;;;;;5.64;87.31;99301.80;1618025;87;21205;-92
2020/12/14 09:47:04;;;;;;;30.48;12.03;;;;;;;5.68;87.07;99305.23;1629892;87;21630;-91
2020/12/14 09:49:32;;;;;;;24.02;11.60;;;;;;;5.74;87.58;99302.64;1648989;82;21253;-90
2020/12/14 09:51:59;;;;;;;22.30;10.82;;;;;;;5.76;86.75;99299.19;1714121;83;21173;-92
2020/12/14 09:54:27;;;;;;;32.17;14.90;;;;;;;5.73;86.32;99303.08;1714779;83;21175;-92
2020/12/14 09:56:55;;;;;;;21.75;11.15;;;;;;;5.72;86.67;99306.51;1714669;83;21130;-92
2020/12/14 09:59:22;;;;;;;32.83;13.48;;;;;;;5.75;86.53;99305.67;1715422;82;21131;-90
2020/12/14 10:01:50;;;;;;;23.98;11.95;;;;;;;5.75;86.70;99308.25;1715529;83;21190;-91
2020/12/14 10:04:18;;;;;;;20.45;9.25;;;;;;;5.69;86.21;99310.41;1717789;82;21177;-90
2020/12/14 10:06:49;;;;;;;24.72;10.40;;;;;;;5.66;85.89;99312.97;1693103;85;21685;-93
2020/12/14 10:09:17;;;;;;;21.85;9.93;;;;;;;5.64;86.06;99311.27;1677317;80;21679;-90
2020/12/14 10:11:44;;;;;;;27.73;11.50;;;;;;;5.68;86.03;99313.83;1650525;86;21191;-94
2020/12/14 10:14:13;;;;;;;26.82;10.25;;;;;;;5.72;86.43;99310.38;1736404;79;21150;-90
2020/12/14 10:16:40;;;;;;;23.70;10.93;;;;;;;5.65;86.02;99313.85;1743402;80;21571;-94
2020/12/14 10:19:09;;;;;;;29.25;12.03;;;;;;;5.63;85.84;99310.83;1622235;79;21201;-94
2020/12/14 10:21:37;;;;;;;29.20;11.43;;;;;;;5.70;85.97;99308.23;1609039;89;21208;-93
2020/12/14 10:24:04;;;;;;;37.33;12.80;;;;;;;5.79;86.43;99308.67;1615354;89;21216;-90
2020/12/14 10:26:33;;;;;;;39.13;11.48;;;;;;;5.83;86.48;99309.48;1696778;79;21158;-91
2020/12/14 10:29:00;;;;;;;28.65;12.63;;;;;;;5.84;86.41;99312.52;1696856;79;21152;-91
2020/12/14 10:31:28;;;;;;;37.75;15.70;;;;;;;5.86;86.71;99314.22;1688936;83;21212;-92
2020/12/14 10:33:58;;;;;;;36.70;15.28;;;;;;;5.88;86.00;99318.09;1693198;83;21193;-91
2020/12/14 10:36:25;;;;;;;35.28;15.58;;;;;;;5.88;85.50;99307.33;1688288;83;21190;-92
2020/12/14 10:38:53;;;;;;;37.23;15.68;;;;;;;5.95;85.62;99315.97;1683409;84;21182;-92
2020/12/14 10:41:21;;;;;;;36.25;15.93;;;;;;;5.85;85.57;99312.92;1701207;81;21302;-90
2020/12/14 10:43:48;;;;;;;39.23;14.15;;;;;;;5.89;85.80;99315.92;1675506;84;21193;-90
2020/12/14 10:46:17;;;;;;;42.93;17.48;;;;;;;5.87;85.69;99317.24;1681640;84;21198;-90
2020/12/14 10:48:45;;;;;;;36.03;14.10;;;;;;;5.88;85.93;99311.20;1754008;79;21158;-90
2020/12/14 10:51:13;;;;;;;32.63;13.72;;;;;;;5.90;85.75;99315.08;1722495;79;21156;-90
2020/12/14 10:53:40;;;;;;;28.55;12.82;;;;;;;5.88;85.61;99318.94;1721156;82;21181;-92
2020/12/14 10:56:08;;;;;;;25.52;12.40;;;;;;;5.86;85.74;99315.51;1718967;83;21178;-92
2020/12/14 10:58:35;;;;;;;31.27;12.05;;;;;;;5.85;85.38;99311.63;1702722;83;21196;-92
2020/12/14 11:01:03;;;;;;;29.45;10.85;;;;;;;5.81;85.29;99308.64;1725538;82;21169;-92
2020/12/14 11:03:32;;;;;;;31.07;11.68;;;;;;;5.73;85.68;99313.41;1691491;78;21152;-88
2020/12/14 11:05:59;;;;;;;30.50;12.03;;;;;;;5.76;85.79;99308.66;1651029;85;21640;-89
2020/12/14 11:08:29;;;;;;;32.98;11.65;;;;;;;5.74;85.80;99316.39;1692485;80;21745;-91
2020/12/14 11:10:57;;;;;;;28.87;12.15;;;;;;;5.70;86.07;99312.10;1734403;81;21335;-91
2020/12/14 11:13:25;;;;;;;30.32;12.05;;;;;;;5.74;86.16;99320.27;1671481;85;21177;-93
2020/12/14 11:15:52;;;;;;;30.25;12.98;;;;;;;5.72;86.24;99318.12;1673654;84;21809;-92
2020/12/14 11:18:20;;;;;;;29.92;13.05;;;;;;;5.76;86.34;99316.39;1669110;84;21184;-90
2020/12/14 11:20:47;;;;;;;37.70;13.45;;;;;;;5.82;86.36;99321.98;1675160;84;21223;-93
2020/12/14 11:23:15;;;;;;;36.23;14.30;;;;;;;5.87;86.47;99318.53;1754701;80;21139;-91
2020/12/14 11:25:42;;;;;;;35.15;14.20;;;;;;;5.83;85.93;99314.65;1750265;80;21186;-92
2020/12/14 11:28:11;;;;;;;34.75;15.35;;;;;;;5.94;86.72;99316.34;1747496;79;21286;-92
2020/12/14 11:30:38;;;;;;;33.48;15.43;;;;;;;6.03;86.56;99323.25;1733894;82;21199;-91
2020/12/14 11:33:05;;;;;;;33.28;14.58;;;;;;;6.13;86.52;99321.50;1717892;82;21648;-91
2020/12/14 11:35:33;;;;;;;36.23;14.70;;;;;;;6.14;86.29;99329.66;1699824;83;21199;-92
2020/12/14 11:38:00;;;;;;;33.90;14.85;;;;;;;6.18;85.89;99332.66;1714360;83;21139;-93
2020/12/14 11:40:28;;;;;;;31.75;14.38;;;;;;;6.22;85.84;99336.09;1703097;84;21165;-90
2020/12/14 11:42:55;;;;;;;35.45;15.75;;;;;;;6.16;84.79;99335.23;1715485;83;21586;-89
2020/12/14 11:45:24;;;;;;;30.15;13.98;;;;;;;6.16;85.23;99333.94;1665816;81;21195;-91
2020/12/14 11:47:52;;;;;;;35.70;14.70;;;;;;;6.16;84.95;99343.42;1655300;85;21194;-91
2020/12/14 11:50:20;;;;;;;31.35;13.70;;;;;;;6.15;85.11;99342.56;1685220;85;21207;-91
2020/12/14 11:52:47;;;;;;;36.88;16.52;;;;;;;6.12;85.08;99342.56;1709042;82;21462;-89
2020/12/14 11:55:15;;;;;;;38.40;14.00;;;;;;;6.09;84.80;99339.16;1709552;82;21177;-91
2020/12/14 11:57:42;;;;;;;25.45;10.82;;;;;;;6.10;85.18;99346.88;1711613;82;21215;-92
2020/12/14 12:00:12;;;;;;;26.37;10.50;;;;;;;6.09;84.89;99345.17;1733674;80;21168;-93
2020/12/14 12:02:41;;;;;;;34.35;12.78;;;;;;;6.11;85.32;99349.05;1724826;81;21660;-91
2020/12/14 12:05:09;;;;;;;30.27;13.15;;;;;;;6.12;85.37;99347.72;1722184;81;21191;-92
2020/12/14 12:07:36;;;;;;;33.23;12.47;;;;;;;6.16;85.48;99341.69;1725724;81;21202;-93
2020/12/14 12:10:04;;;;;;;45.83;12.68;;;;;;;6.21;85.24;99352.02;1725632;81;21311;-93
2020/12/14 12:12:32;;;;;;;25.88;10.35;;;;;;;6.30;85.92;99351.11;1712873;80;21352;-92
2020/12/14 12:14:59;;;;;;;24.65;9.75;;;;;;;6.32;84.68;99339.05;1707741;82;21343;-93
2020/12/14 12:17:26;;;;;;;20.68;8.28;;;;;;;6.38;84.50;99344.19;1725747;82;21194;-91
2020/12/14 12:19:54;;;;;;;24.90;10.45;;;;;;;6.36;84.85;99346.78;1731589;81;21169;-92
2020/12/14 12:22:22;;;;;;;27.37;12.03;;;;;;;6.40;85.48;99345.05;1738965;81;21170;-91
2020/12/14 12:24:50;;;;;;;62.05;24.30;;;;;;;6.36;84.92;99346.78;1672622;81;21927;-92
2020/12/14 12:27:19;;;;;;;43.23;17.73;;;;;;;6.40;84.79;99348.92;1728570;82;21561;-91
2020/12/14 12:29:58;;;;;;;34.60;14.03;;;;;;;6.45;84.96;99349.77;1619942;85;21308;-93
2020/12/14 12:32:25;;;;;;;69.20;25.62;;;;;;;6.47;84.63;99351.06;1618184;87;21196;-93
2020/12/14 12:34:53;;;;;;;64.95;24.92;;;;;;;6.52;84.73;99350.59;1624032;87;21235;-93
2020/12/14 12:37:20;;;;;;;38.33;17.37;;;;;;;6.50;84.73;99346.72;1650318;86;21172;-94
2020/12/14 12:39:47;;;;;;;30.95;14.35;;;;;;;6.52;84.92;99347.56;1613719;87;21174;-92
2020/12/14 12:42:17;;;;;;;32.53;12.75;;;;;;;6.56;84.87;99349.30;1631210;85;21951;-93
2020/12/14 12:44:44;;;;;;;29.05;13.43;;;;;;;6.62;85.10;99347.09;1593567;85;22358;-92